Detall de PIREP

Printer-friendly versionPDF version

[2010/02/08 21:19:00]
Flight IATA:CT0001
Pilot Number:041
Company ICAO:CAT
Aircraft Type:BE58/A
PAX:4
Departing Airport: LEVC
Destination Airport: LEIB
Alternate Airport:LEPA
Online: VATSIM
Route:NINOT1B NINOT1N
Flight Level:FL80
No Slew and time accel
No pause
Crash detect
Detect pilot in Cockpit between each 30 and 45 minutes
21:19 Zero fuel Weight: 4892 Lbs, Fuel Weight: 509 Lbs
21:19 VATSIM:LEVC 082030Z 27004KT 9000 FEW060 08/08 Q0997 NOSIG
21:19 VATSIM:LEIB 082030Z 23011KT 6000 FEW020 SCT045 13/12 Q0997 NOSIG
21:19 VOICE CATALONIAN
21:20 Parking Brakes off
21:30 Take-off
21:30 Take off Weight: 5396 Lbs
21:30 Wind: 075º @ 001 Knots Heading: 115º
21:30 POS N39º 29´ 23´´ W000º 28´ 58´´
21:30 Gear Up: 108 Knots
21:30 Flaps:1 at 108 Knots
21:31 Flaps:0 at 118 Knots
21:39 TOC
21:39 Fuel Weight: 470 Lb
21:41 TOD
21:41 Fuel Weight: 460 Lb
21:42 TOC
21:42 Fuel
Weight: 459 Lb
21:45 Wind:285º@029 Knots Heading: 110º Ground Speed: 223 Knots Altitude 8034 ft
21:47 TOD
21:47 Fuel Weight: 441 Lb
21:47 TOC
21:47 Fuel Weight: 441 Lb
21:47 TOD
21:47 Fuel Weight: 438 Lb
21:49 TOC
21:49 Fuel Weight: 433 Lb
21:51 TOD
21:51 Fuel Weight: 428 Lb
21:59 Flaps:1 at 130 Knots
22:00 Wind:266º@009 Knots Heading: 093º Ground Speed: 149 Knots Altitude 3359 ft
22:06 Gear Down: 123 Knots
22:07 Flaps:2 at 119 Knots
22:09 TouchDown:Rate -83 ft/min Speed: 87 Knots
22:09 Flaps:1 at 76 Knots
22:09 Flaps:0 at 74 Knots
22:09 VATSIM:LEIB 082130Z 24010KT 6000 FEW045 13/12 Q0997 NOSIG
22:09 Land
22:09 Wind:232º@010 Knots
22:09 Heading: 254º
22:09 Flight Duration: 00:39
22:09 Landing Weight: 5281 Lbs
22:09 POS N38º 52´ 25´´ E001º 22´ 30´´
22:12 Parking brakes on
22:12 Block to Block Duration: 00:53
22:12 Final Fuel: 388 Lbls
22:12 Spent
Fuel: 121 Lbls
22:12 Flight Length: 115 NM
22:12 TOD Land Length: 44 NM

Exportar CSV

Powered by Drupal - Modified by Danger4k